Time;durP1;ratioP1;P1;durP2;ratioP2;P2;SDS_P1;SDS_P2;PMS_P1;PMS_P2;Temp;Humidity;BMP_temperature;BMP_pressure;BME280_temperature;BME280_humidity;BME280_pressure;Samples;Min_cycle;Max_cycle;Signal;HPM_P1;HPM_P2
2022/08/06 00:00:01;;;;;;;12.65;11.43;;;;;;;24.03;42.58;100292.91;5030727;28;20040;-59
2022/08/06 00:02:30;;;;;;;15.40;11.45;;;;;;;24.11;42.73;100317.34;5030958;28;20484;-60
2022/08/06 00:04:58;;;;;;;15.00;11.48;;;;;;;24.07;43.10;100321.53;5047412;28;20029;-61
2022/08/06 00:07:24;;;;;;;13.07;11.75;;;;;;;24.01;42.92;100317.75;5038867;28;20025;-59
2022/08/06 00:09:50;;;;;;;12.88;11.57;;;;;;;23.99;43.51;100310.72;5047707;28;20478;-59
2022/08/06 00:12:16;;;;;;;13.98;11.48;;;;;;;23.94;43.19;100322.25;5032199;28;20029;-60
2022/08/06 00:14:41;;;;;;;16.08;11.60;;;;;;;23.93;43.47;100318.69;5049582;28;20025;-58
2022/08/06 00:17:06;;;;;;;14.38;11.63;;;;;;;23.95;43.75;100315.75;5047894;28;20055;-59
2022/08/06 00:19:32;;;;;;;15.43;11.90;;;;;;;23.92;43.73;100310.69;5034738;28;20033;-60
2022/08/06 00:21:57;;;;;;;16.88;12.27;;;;;;;23.99;43.41;100314.28;5030482;28;20119;-59
2022/08/06 00:24:23;;;;;;;13.82;11.57;;;;;;;23.93;43.77;100321.44;5030796;28;20082;-60
2022/08/06 00:26:48;;;;;;;12.45;11.07;;;;;;;23.89;44.03;100320.16;5031062;28;20049;-60
2022/08/06 00:29:14;;;;;;;22.20;12.13;;;;;;;23.88;44.06;100307.53;5031933;28;20122;-59
2022/08/06 00:31:40;;;;;;;13.15;11.52;;;;;;;23.65;44.16;100291.38;5030910;28;20033;-61
2022/08/06 00:34:06;;;;;;;13.40;11.38;;;;;;;23.78;44.27;100320.69;5044894;28;20075;-60
2022/08/06 00:36:33;;;;;;;12.98;11.57;;;;;;;23.74;44.59;100322.13;5039323;28;20037;-59
2022/08/06 00:39:01;;;;;;;13.07;11.77;;;;;;;23.70;44.93;100320.84;5032771;28;20060;-61
2022/08/06 00:41:28;;;;;;;15.07;11.32;;;;;;;23.69;45.02;100322.72;5038649;28;20033;-60
2022/08/06 00:43:55;;;;;;;19.35;12.05;;;;;;;23.69;45.14;100322.72;5049801;28;20037;-60
2022/08/06 00:46:22;;;;;;;14.60;12.20;;;;;;;23.70;45.05;100318.13;5048093;28;20498;-62
2022/08/06 00:48:48;;;;;;;16.70;11.65;;;;;;;23.73;44.98;100314.97;5048899;28;20032;-60
2022/08/06 00:51:13;;;;;;;16.20;12.13;;;;;;;23.75;45.16;100319.22;5030400;28;20038;-59
2022/08/06 00:53:39;;;;;;;16.80;12.20;;;;;;;23.75;45.32;100321.09;5045201;28;20448;-64
2022/08/06 00:56:05;;;;;;;16.35;11.90;;;;;;;23.75;45.13;100329.28;5048232;28;20032;-60
2022/08/06 00:58:30;;;;;;;18.63;12.30;;;;;;;23.79;45.17;100323.22;5049621;28;20098;-60
2022/08/06 01:00:56;;;;;;;16.88;12.85;;;;;;;23.82;45.38;100326.59;5050088;28;20041;-60
2022/08/06 01:03:22;;;;;;;15.40;12.38;;;;;;;23.82;45.36;100329.34;5041629;28;20029;-58
2022/08/06 01:05:47;;;;;;;13.68;12.02;;;;;;;23.80;45.60;100324.06;5035505;28;20029;-61
2022/08/06 01:08:13;;;;;;;14.02;12.10;;;;;;;23.76;46.12;100325.50;5035187;28;20083;-60
2022/08/06 01:10:38;;;;;;;15.68;12.50;;;;;;;23.71;45.78;100323.38;5039823;28;20479;-59
2022/08/06 01:13:04;;;;;;;17.98;11.65;;;;;;;23.72;45.86;100324.22;5032844;28;20052;-60
2022/08/06 01:15:32;;;;;;;17.52;12.27;;;;;;;23.71;46.04;100328.81;5044778;28;20469;-61
2022/08/06 01:18:04;;;;;;;15.20;13.25;;;;;;;23.74;46.16;100338.53;5050271;28;20071;-60
2022/08/06 01:20:56;;;;;;;16.65;12.50;;;;;;;23.73;46.30;100325.91;5035009;28;20068;-59
2022/08/06 01:23:35;;;;;;;19.80;12.98;;;;;;;23.83;45.90;100341.97;5031117;28;20103;-60
2022/08/06 01:26:38;;;;;;;17.08;13.07;;;;;;;23.85;45.74;100337.97;5028920;28;20045;-60
2022/08/06 01:29:17;;;;;;;17.25;13.38;;;;;;;23.84;46.08;100343.66;5038730;28;20033;-59
2022/08/06 01:31:55;;;;;;;15.02;13.07;;;;;;;23.76;46.34;100334.56;5039048;28;20040;-59
2022/08/06 01:34:31;;;;;;;14.02;12.50;;;;;;;23.70;47.03;100337.25;5053981;28;20037;-61
2022/08/06 01:37:09;;;;;;;17.20;12.70;;;;;;;23.67;47.10;100335.75;5052031;28;20385;-60
2022/08/06 01:39:37;;;;;;;17.17;12.45;;;;;;;23.61;47.11;100340.09;5042987;28;20462;-59
2022/08/06 01:42:05;;;;;;;17.80;12.60;;;;;;;23.61;47.04;100351.03;5053415;28;20083;-59
2022/08/06 01:44:34;;;;;;;18.65;12.30;;;;;;;23.61;47.04;100345.56;5043042;28;20036;-61
2022/08/06 01:47:03;;;;;;;17.75;13.18;;;;;;;23.65;47.26;100351.50;5033330;28;20087;-60
2022/08/06 01:49:30;;;;;;;16.70;12.90;;;;;;;23.69;47.27;100349.22;5034842;28;20079;-61
2022/08/06 01:51:59;;;;;;;18.27;13.13;;;;;;;23.60;47.57;100349.34;5040921;28;20036;-61
2022/08/06 01:54:27;;;;;;;16.52;13.15;;;;;;;23.60;47.91;100349.34;5038119;28;20041;-60
2022/08/06 01:56:54;;;;;;;16.60;11.88;;;;;;;23.57;47.81;100344.28;5034926;28;20473;-59
2022/08/06 01:59:23;;;;;;;17.17;12.68;;;;;;;23.52;47.68;100338.56;5046832;28;20029;-59
2022/08/06 02:01:54;;;;;;;18.05;13.30;;;;;;;23.61;47.55;100345.56;5051712;28;20057;-61
2022/08/06 02:04:22;;;;;;;18.52;13.27;;;;;;;23.51;47.97;100342.34;5051925;28;20033;-59
2022/08/06 02:06:50;;;;;;;17.98;12.90;;;;;;;23.57;48.01;100348.91;5053267;28;20076;-61
2022/08/06 02:09:19;;;;;;;20.17;12.88;;;;;;;23.59;47.88;100341.38;5046221;28;21017;-60
2022/08/06 02:11:53;;;;;;;17.83;12.70;;;;;;;23.62;48.08;100346.44;5032974;28;20478;-61
2022/08/06 02:14:20;;;;;;;17.17;12.32;;;;;;;23.54;48.33;100341.13;5038345;28;20051;-61
2022/08/06 02:16:47;;;;;;;16.50;12.50;;;;;;;23.55;48.48;100340.06;5040146;28;20025;-59
2022/08/06 02:19:16;;;;;;;16.60;12.43;;;;;;;23.60;48.06;100348.53;5032791;28;20461;-61
2022/08/06 02:21:43;;;;;;;17.98;13.07;;;;;;;23.59;48.34;100352.28;5051443;28;20090;-59
2022/08/06 02:24:10;;;;;;;19.63;12.82;;;;;;;23.61;48.46;100356.50;5035240;28;20488;-60
2022/08/06 02:26:37;;;;;;;16.38;13.65;;;;;;;23.68;48.38;100367.50;5052024;28;20036;-59
2022/08/06 02:29:05;;;;;;;20.52;14.20;;;;;;;23.71;48.51;100366.28;5050833;28;20036;-61
2022/08/06 02:31:31;;;;;;;18.23;14.00;;;;;;;23.73;48.50;100355.97;5051314;28;20115;-59
2022/08/06 02:33:57;;;;;;;19.92;13.63;;;;;;;23.75;48.18;100345.69;5052105;28;20117;-59
2022/08/06 02:36:29;;;;;;;22.05;14.25;;;;;;;23.91;48.00;100350.88;5053344;28;20025;-60
2022/08/06 02:39:08;;;;;;;20.15;13.80;;;;;;;23.98;47.75;100355.53;5048799;28;20028;-59
2022/08/06 02:42:03;;;;;;;21.75;13.32;;;;;;;23.99;48.11;100362.69;5051840;28;20114;-58
2022/08/06 02:44:40;;;;;;;14.75;13.10;;;;;;;24.00;47.70;100354.31;5045704;28;20031;-63
2022/08/06 02:47:16;;;;;;;14.50;12.98;;;;;;;24.07;48.00;100355.22;5044830;28;20030;-60
2022/08/06 02:49:46;;;;;;;19.70;13.95;;;;;;;24.07;48.03;100348.88;5042946;28;20033;-60
2022/08/06 02:52:25;;;;;;;19.10;13.15;;;;;;;24.21;47.98;100356.16;5034534;28;20376;-59
2022/08/06 02:55:00;;;;;;;16.65;13.02;;;;;;;24.23;47.72;100348.56;5039018;28;20025;-59
2022/08/06 02:57:39;;;;;;;17.30;13.65;;;;;;;24.29;47.42;100349.66;5046423;28;20037;-60
2022/08/06 03:00:08;;;;;;;17.27;13.07;;;;;;;24.27;47.83;100351.78;5031996;28;20473;-60
2022/08/06 03:02:37;;;;;;;15.57;13.93;;;;;;;24.34;47.69;100355.38;5031828;28;20037;-59
2022/08/06 03:05:05;;;;;;;15.38;13.38;;;;;;;24.40;47.47;100341.91;5032311;28;20049;-60
2022/08/06 03:07:33;;;;;;;19.80;13.27;;;;;;;24.48;47.25;100350.81;5031878;28;20208;-59
2022/08/06 03:10:00;;;;;;;17.50;13.18;;;;;;;24.57;47.58;100347.91;5043588;28;20053;-60
2022/08/06 03:12:27;;;;;;;17.27;12.50;;;;;;;24.69;47.34;100350.91;5051707;28;20045;-59
2022/08/06 03:14:54;;;;;;;16.20;14.25;;;;;;;24.78;46.94;100345.06;5050073;28;20029;-59
2022/08/06 03:17:22;;;;;;;18.60;13.05;;;;;;;24.86;46.58;100345.94;5046496;28;20544;-58
2022/08/06 03:19:49;;;;;;;19.73;13.07;;;;;;;24.98;46.66;100344.28;5044734;28;20120;-59
2022/08/06 03:22:17;;;;;;;16.48;13.32;;;;;;;25.13;46.12;100351.50;5050040;28;20628;-59
2022/08/06 03:24:44;;;;;;;18.45;13.27;;;;;;;25.19;46.17;100354.22;5036290;28;20029;-60
2022/08/06 03:27:11;;;;;;;16.38;13.55;;;;;;;25.24;46.24;100348.13;5047902;28;20518;-59
2022/08/06 03:29:40;;;;;;;20.45;13.88;;;;;;;25.34;45.58;100347.72;5051236;28;20032;-59
2022/08/06 03:32:08;;;;;;;17.00;13.52;;;;;;;25.48;45.17;100351.34;5049416;28;20745;-60
2022/08/06 03:34:34;;;;;;;17.20;13.98;;;;;;;25.58;45.22;100349.06;5040061;28;20034;-61
2022/08/06 03:37:01;;;;;;;18.88;13.52;;;;;;;25.65;44.88;100355.38;5035842;28;20040;-59
2022/08/06 03:39:30;;;;;;;15.45;13.10;;;;;;;25.77;44.95;100357.47;5042338;28;20033;-60
2022/08/06 03:41:56;;;;;;;17.13;13.88;;;;;;;25.86;44.90;100348.00;5050984;28;20488;-59
2022/08/06 03:44:22;;;;;;;17.95;13.82;;;;;;;26.04;44.01;100351.94;5049155;28;20041;-60
2022/08/06 03:47:00;;;;;;;19.90;13.65;;;;;;;26.23;44.15;100359.34;5050936;28;20132;-61
2022/08/06 03:49:33;;;;;;;17.70;13.93;;;;;;;26.31;43.99;100352.78;5049212;28;20557;-59
2022/08/06 03:52:01;;;;;;;17.30;13.35;;;;;;;26.42;43.14;100353.19;5049885;28;20029;-60
2022/08/06 03:54:29;;;;;;;16.42;13.98;;;;;;;26.51;42.97;100358.19;5041727;28;20037;-59
2022/08/06 03:57:00;;;;;;;16.90;13.35;;;;;;;26.88;42.77;100356.81;5043407;28;20465;-59
2022/08/06 03:59:29;;;;;;;16.63;13.95;;;;;;;27.73;41.02;100355.63;5038225;28;20115;-60
2022/08/06 04:01:56;;;;;;;17.98;14.00;;;;;;;28.79;38.45;100345.63;5043916;28;20481;-59
2022/08/06 04:04:24;;;;;;;16.27;12.82;;;;;;;29.97;36.15;100346.19;5049334;28;20032;-59
2022/08/06 04:06:50;;;;;;;16.15;13.23;;;;;;;31.06;34.01;100341.84;5050651;28;20469;-60
2022/08/06 04:09:18;;;;;;;14.98;12.38;;;;;;;32.06;32.28;100348.78;5043706;28;20052;-60
2022/08/06 04:11:45;;;;;;;15.52;12.45;;;;;;;32.92;30.93;100329.13;5030833;28;20120;-59
2022/08/06 04:14:12;;;;;;;18.50;13.15;;;;;;;33.64;29.62;100343.66;5038845;28;20127;-60
2022/08/06 04:16:38;;;;;;;15.05;12.63;;;;;;;34.22;28.72;100342.94;5045609;28;20026;-61
2022/08/06 04:19:05;;;;;;;16.25;11.82;;;;;;;34.85;27.75;100349.63;5035238;28;20461;-61
2022/08/06 04:21:31;;;;;;;14.50;12.43;;;;;;;35.45;26.94;100348.31;5038899;28;20393;-60
2022/08/06 04:23:56;;;;;;;16.45;12.18;;;;;;;36.05;26.07;100348.59;5041557;28;20493;-62
2022/08/06 04:26:24;;;;;;;13.63;12.15;;;;;;;36.57;25.20;100355.94;5047517;28;20500;-60
2022/08/06 04:28:52;;;;;;;16.38;12.38;;;;;;;36.88;24.83;100353.84;5036756;28;20034;-59
2022/08/06 04:31:19;;;;;;;14.77;12.20;;;;;;;36.93;24.65;100361.34;5030873;28;20072;-60
2022/08/06 04:33:47;;;;;;;14.98;11.70;;;;;;;37.08;24.33;100354.00;5030393;28;20068;-59
2022/08/06 04:36:13;;;;;;;15.95;11.60;;;;;;;37.72;23.85;100359.66;5042982;28;20132;-59
2022/08/06 04:38:39;;;;;;;13.77;11.35;;;;;;;38.15;23.16;100357.00;5047688;28;20104;-58
2022/08/06 04:41:06;;;;;;;13.13;11.02;;;;;;;38.50;23.04;100356.91;5040410;28;20120;-62
2022/08/06 04:43:32;;;;;;;14.90;11.65;;;;;;;38.78;22.30;100340.28;5028982;28;20104;-59
2022/08/06 04:45:59;;;;;;;12.80;11.27;;;;;;;39.10;22.01;100354.69;5028754;28;20033;-60
2022/08/06 04:48:25;;;;;;;16.85;11.90;;;;;;;39.29;22.03;100349.88;5029539;28;20873;-60
2022/08/06 04:50:51;;;;;;;13.05;11.48;;;;;;;39.72;21.56;100345.25;5029067;28;20026;-59
2022/08/06 04:53:18;;;;;;;15.20;11.90;;;;;;;40.01;20.86;100352.59;5029376;28;20034;-61
2022/08/06 04:55:45;;;;;;;13.00;11.70;;;;;;;40.50;20.69;100357.81;5029786;28;20086;-59
2022/08/06 04:58:13;;;;;;;13.18;11.15;;;;;;;41.06;19.92;100357.72;5048032;28;20390;-60
2022/08/06 05:00:42;;;;;;;13.52;11.50;;;;;;;41.58;19.41;100360.91;5047428;28;20036;-62
2022/08/06 05:03:08;;;;;;;14.57;11.10;;;;;;;41.96;19.04;100345.59;5052009;28;20480;-58
2022/08/06 05:05:39;;;;;;;13.02;11.60;;;;;;;42.43;18.68;100344.28;5052974;28;20076;-59
2022/08/06 05:08:07;;;;;;;19.80;11.43;;;;;;;42.33;18.77;100353.84;5046365;28;20492;-59
2022/08/06 05:10:42;;;;;;;12.60;11.30;;;;;;;42.58;18.47;100345.81;5034019;28;20049;-59
2022/08/06 05:13:12;;;;;;;11.15;9.98;;;;;;;43.02;17.95;100354.31;5034366;28;20037;-59
2022/08/06 05:15:41;;;;;;;14.13;10.77;;;;;;;43.27;17.95;100352.66;5040281;28;20064;-61
2022/08/06 05:18:29;;;;;;;13.85;11.25;;;;;;;43.92;17.52;100353.88;5033768;28;20359;-61
2022/08/06 05:20:56;;;;;;;12.23;10.48;;;;;;;43.85;16.81;100341.09;5034725;28;20029;-62
2022/08/06 05:23:45;;;;;;;11.80;9.82;;;;;;;44.57;16.68;100351.72;5039864;28;20063;-60
2022/08/06 05:26:12;;;;;;;13.98;10.88;;;;;;;44.67;16.03;100358.13;5043580;28;20083;-59
2022/08/06 05:28:39;;;;;;;14.77;10.75;;;;;;;44.90;15.69;100354.97;5052017;28;20037;-61
2022/08/06 05:31:05;;;;;;;16.52;11.73;;;;;;;45.24;15.42;100353.84;5051723;28;20048;-61
2022/08/06 05:33:33;;;;;;;10.93;9.60;;;;;;;45.40;15.42;100358.88;5053321;28;20039;-59
2022/08/06 05:36:00;;;;;;;12.57;9.30;;;;;;;45.50;15.00;100349.94;5046916;28;20043;-60
2022/08/06 05:38:27;;;;;;;10.88;9.45;;;;;;;45.33;15.50;100350.13;5036573;28;20446;-62
2022/08/06 05:40:53;;;;;;;10.52;9.52;;;;;;;45.35;15.33;100344.97;5052537;28;20068;-60
2022/08/06 05:43:19;;;;;;;12.23;9.55;;;;;;;46.07;15.21;100340.97;5051120;28;20036;-59
2022/08/06 05:45:47;;;;;;;10.60;9.43;;;;;;;46.83;14.41;100344.19;5053636;28;20512;-60
2022/08/06 05:48:15;;;;;;;12.48;9.00;;;;;;;47.36;13.59;100351.00;5051199;28;20025;-60
2022/08/06 05:50:48;;;;;;;15.65;8.48;;;;;;;47.97;13.24;100351.78;5044383;28;20052;-61
2022/08/06 05:53:23;;;;;;;9.68;8.55;;;;;;;48.64;12.69;100348.13;5034492;28;20036;-60
2022/08/06 05:55:54;;;;;;;12.10;8.02;;;;;;;49.13;12.08;100329.66;5039881;28;20422;-60
2022/08/06 05:58:28;;;;;;;10.45;8.32;;;;;;;49.79;11.90;100342.25;5051675;28;20048;-61
2022/08/06 06:00:55;;;;;;;12.82;8.82;;;;;;;50.77;11.17;100343.75;5051243;28;20037;-59
2022/08/06 06:03:23;;;;;;;13.10;8.60;;;;;;;51.19;10.67;100336.94;5043816;28;20033;-63
2022/08/06 06:05:49;;;;;;;10.40;9.23;;;;;;;51.74;10.26;100344.03;5035331;28;20025;-60
2022/08/06 06:08:18;;;;;;;16.88;9.73;;;;;;;52.03;10.03;100320.63;5035522;28;20060;-59
2022/08/06 06:10:45;;;;;;;10.45;8.90;;;;;;;52.29;10.14;100339.53;5040988;28;20053;-60
2022/08/06 06:13:12;;;;;;;14.65;9.73;;;;;;;52.52;9.96;100347.03;5043555;28;20036;-61
2022/08/06 06:15:43;;;;;;;10.38;8.60;;;;;;;53.22;9.31;100335.47;5032689;28;20536;-62
2022/08/06 06:18:26;;;;;;;14.75;8.90;;;;;;;53.95;8.66;100339.25;5032487;28;20120;-63
2022/08/06 06:21:08;;;;;;;14.65;9.68;;;;;;;54.61;9.04;100348.50;5032738;28;20037;-62
2022/08/06 06:23:47;;;;;;;11.65;9.32;;;;;;;54.86;8.29;100350.47;5048582;28;20068;-60
2022/08/06 06:26:36;;;;;;;12.05;9.65;;;;;;;55.34;8.02;100345.28;5036430;28;20029;-60
2022/08/06 06:29:10;;;;;;;14.77;9.30;;;;;;;55.37;8.25;100338.72;5032600;28;20120;-62
2022/08/06 06:31:44;;;;;;;10.77;9.68;;;;;;;55.94;7.62;100339.47;5033068;28;20482;-62
2022/08/06 06:34:35;;;;;;;11.05;9.88;;;;;;;55.83;8.08;100330.16;5034313;28;20386;-62
2022/08/06 06:37:09;;;;;;;11.88;10.45;;;;;;;55.31;7.57;100314.56;5033096;28;20033;-62
2022/08/06 06:40:13;;;;;;;11.15;9.40;;;;;;;56.25;7.65;100321.53;5033279;28;20088;-61
2022/08/06 06:42:45;;;;;;;13.13;10.23;;;;;;;56.61;7.04;100313.28;5032399;28;20034;-62
2022/08/06 06:45:19;;;;;;;11.23;10.10;;;;;;;56.51;7.05;100311.38;5034548;28;20052;-62
2022/08/06 06:47:55;;;;;;;11.13;10.13;;;;;;;56.31;7.77;100325.53;5032609;28;20274;-61
2022/08/06 06:50:28;;;;;;;15.95;10.75;;;;;;;56.54;7.15;100322.00;5032610;28;20438;-63
2022/08/06 06:52:55;;;;;;;13.35;9.65;;;;;;;56.00;7.08;100328.38;5033288;28;20037;-63
2022/08/06 06:55:35;;;;;;;11.20;9.75;;;;;;;55.12;8.44;100328.22;5032744;28;20112;-62
2022/08/06 06:58:23;;;;;;;11.20;9.90;;;;;;;54.83;8.20;100325.50;5032816;28;20113;-61
2022/08/06 07:00:50;;;;;;;12.50;8.07;;;;;;;54.93;7.65;100316.00;5031900;28;20084;-62
2022/08/06 07:03:19;;;;;;;8.90;8.10;;;;;;;55.55;7.75;100318.47;5032030;28;20030;-62
2022/08/06 07:05:47;;;;;;;10.20;8.45;;;;;;;55.99;6.94;100320.97;5033002;28;20094;-61
2022/08/06 07:08:16;;;;;;;13.98;8.82;;;;;;;55.92;7.40;100316.09;5032539;28;20052;-63
2022/08/06 07:10:43;;;;;;;9.93;8.73;;;;;;;55.98;7.42;100308.69;5032609;28;20151;-61
2022/08/06 07:13:10;;;;;;;10.88;9.60;;;;;;;56.46;6.81;100304.03;5031805;28;20500;-62
2022/08/06 07:15:37;;;;;;;9.57;8.25;;;;;;;57.11;6.29;100298.66;5031465;28;20065;-61
2022/08/06 07:18:04;;;;;;;10.85;7.90;;;;;;;57.21;6.31;100301.38;5032487;28;20056;-62
2022/08/06 07:20:31;;;;;;;9.52;8.50;;;;;;;57.20;6.30;100305.50;5030612;28;20080;-62
2022/08/06 07:23:00;;;;;;;8.65;7.75;;;;;;;57.21;6.28;100298.50;5032752;28;20053;-62
2022/08/06 07:25:26;;;;;;;10.75;8.00;;;;;;;57.10;6.25;100309.34;5031253;28;20056;-61
2022/08/06 07:27:52;;;;;;;9.10;8.35;;;;;;;57.22;5.97;100302.16;5031729;28;20033;-62
2022/08/06 07:30:20;;;;;;;9.10;8.30;;;;;;;57.44;5.96;100314.19;5030792;28;20482;-62
2022/08/06 07:32:49;;;;;;;9.65;8.48;;;;;;;57.76;5.75;100300.44;5031097;28;20036;-62
2022/08/06 07:35:19;;;;;;;9.73;8.63;;;;;;;58.02;6.06;100295.06;5032999;28;20063;-64
2022/08/06 07:38:00;;;;;;;12.80;9.95;;;;;;;58.09;5.75;100277.63;5031889;28;20030;-65
2022/08/06 07:40:35;;;;;;;10.70;9.27;;;;;;;58.20;5.76;100280.28;5033062;28;20033;-62
2022/08/06 07:43:07;;;;;;;10.07;9.15;;;;;;;58.22;5.57;100300.84;5050915;28;20061;-63
2022/08/06 07:45:33;;;;;;;9.77;8.85;;;;;;;57.99;5.61;100291.00;5051114;28;20426;-64
2022/08/06 07:48:04;;;;;;;9.93;9.02;;;;;;;57.77;6.08;100302.91;5044554;28;20045;-62
2022/08/06 07:50:32;;;;;;;12.25;9.75;;;;;;;57.62;5.65;100287.13;5031156;28;20053;-62
2022/08/06 07:52:58;;;;;;;9.98;8.85;;;;;;;56.55;6.57;100299.81;5031725;28;20068;-62
2022/08/06 07:55:27;;;;;;;9.75;8.80;;;;;;;55.83;6.75;100304.31;5048713;28;20110;-62
2022/08/06 07:57:55;;;;;;;9.57;7.95;;;;;;;55.18;7.44;100292.09;5050798;28;20037;-62
2022/08/06 08:00:23;;;;;;;11.18;8.02;;;;;;;55.29;7.39;100285.47;5049284;28;20044;-61
2022/08/06 08:08:21;;;;;;;8.68;7.47;;;;;;;55.32;6.93;100284.63;5031075;28;20037;-62
2022/08/06 08:10:48;;;;;;;8.98;7.70;;;;;;;53.98;7.65;100268.84;5031056;28;20401;-63
2022/08/06 08:13:18;;;;;;;8.25;6.90;;;;;;;52.92;8.50;100296.59;5035989;28;20454;-61
2022/08/06 08:15:46;;;;;;;11.18;7.45;;;;;;;50.83;9.91;100276.66;5030899;28;20068;-61
2022/08/06 08:18:11;;;;;;;10.50;6.75;;;;;;;49.83;10.47;100272.00;5030814;28;20116;-64
2022/08/06 08:20:39;;;;;;;9.20;6.13;;;;;;;48.64;11.22;100271.41;5034496;28;20492;-62
2022/08/06 08:23:06;;;;;;;8.02;5.78;;;;;;;46.87;12.91;100276.31;5039646;28;20480;-61
2022/08/06 08:25:34;;;;;;;6.38;5.57;;;;;;;44.97;14.38;100288.31;5030729;28;20044;-61
2022/08/06 08:28:00;;;;;;;6.75;6.00;;;;;;;43.38;15.75;100267.78;5030412;28;20422;-61
2022/08/06 08:30:26;;;;;;;6.70;6.10;;;;;;;41.95;17.25;100267.16;5031263;28;20029;-61
2022/08/06 08:32:51;;;;;;;8.65;6.47;;;;;;;40.75;18.83;100266.63;5050546;28;20040;-62
2022/08/06 08:35:17;;;;;;;7.75;6.53;;;;;;;39.75;19.71;100266.19;5050074;28;20082;-63
2022/08/06 08:37:42;;;;;;;13.80;7.40;;;;;;;39.10;20.91;100256.72;5037885;28;20021;-61
2022/08/06 08:40:09;;;;;;;9.52;7.22;;;;;;;38.48;21.67;100267.69;5039668;28;20029;-61
2022/08/06 08:42:43;;;;;;;8.25;6.72;;;;;;;37.63;22.41;100272.88;5039863;28;20481;-62
2022/08/06 08:45:10;;;;;;;12.57;7.05;;;;;;;36.78;23.31;100254.28;5038783;28;20415;-61
2022/08/06 08:47:42;;;;;;;7.53;6.57;;;;;;;36.57;23.45;100266.72;5038288;28;20029;-60
2022/08/06 08:50:10;;;;;;;7.75;6.53;;;;;;;36.49;23.94;100273.69;5037892;28;20029;-62
2022/08/06 08:52:39;;;;;;;8.40;6.72;;;;;;;36.41;23.44;100275.13;5033936;28;20030;-62
2022/08/06 08:55:09;;;;;;;9.95;6.88;;;;;;;36.41;23.97;100260.34;5037615;28;20033;-63
2022/08/06 08:57:35;;;;;;;9.25;6.43;;;;;;;36.30;24.14;100262.38;5050002;28;20029;-61
2022/08/06 09:00:03;;;;;;;7.30;6.47;;;;;;;36.14;24.04;100270.78;5049908;28;20392;-61
2022/08/06 09:02:31;;;;;;;10.18;6.57;;;;;;;35.96;24.60;100249.13;5033711;28;20033;-62
2022/08/06 09:04:57;;;;;;;9.68;6.55;;;;;;;35.79;24.79;100253.06;5032276;28;20029;-63
2022/08/06 09:07:22;;;;;;;11.15;6.20;;;;;;;35.76;24.73;100250.84;5031987;28;20037;-61
2022/08/06 09:09:48;;;;;;;9.32;6.55;;;;;;;35.58;24.63;100264.25;5032052;28;20044;-61
2022/08/06 09:12:14;;;;;;;9.52;5.70;;;;;;;35.48;25.07;100245.59;5050330;28;20167;-61
2022/08/06 09:14:45;;;;;;;7.03;5.80;;;;;;;35.40;25.23;100250.88;5048711;28;20448;-62
2022/08/06 09:17:11;;;;;;;8.85;6.53;;;;;;;35.35;25.68;100255.34;5033958;28;20470;-61
2022/08/06 09:19:37;;;;;;;8.85;5.90;;;;;;;35.25;25.28;100260.09;5030176;28;20052;-60
2022/08/06 09:22:03;;;;;;;7.88;6.82;;;;;;;35.13;25.60;100247.31;5030395;28;20117;-61
2022/08/06 09:24:29;;;;;;;7.82;6.65;;;;;;;35.09;25.66;100243.41;5049102;28;20456;-61
2022/08/06 09:27:13;;;;;;;8.52;6.82;;;;;;;35.33;25.16;100253.97;5049785;28;20111;-60
2022/08/06 09:29:53;;;;;;;7.53;6.60;;;;;;;35.30;25.76;100260.06;5037602;28;20172;-59
2022/08/06 09:32:42;;;;;;;9.10;7.40;;;;;;;35.16;25.54;100252.31;5030458;28;20180;-61
2022/08/06 09:35:25;;;;;;;10.30;7.13;;;;;;;34.90;25.79;100252.28;5037702;28;20050;-60
2022/08/06 09:38:01;;;;;;;8.90;7.03;;;;;;;34.58;26.74;100256.09;5050085;28;20576;-63
2022/08/06 09:40:27;;;;;;;8.88;7.43;;;;;;;34.29;27.71;100239.88;5047276;28;20029;-61
2022/08/06 09:42:52;;;;;;;10.85;7.18;;;;;;;34.15;27.81;100230.41;5029604;28;20030;-60
2022/08/06 09:45:20;;;;;;;10.30;6.72;;;;;;;34.28;27.47;100229.88;5028995;28;20032;-61
2022/08/06 09:47:47;;;;;;;7.63;6.93;;;;;;;34.26;27.28;100209.88;5042977;28;20060;-61
2022/08/06 09:50:13;;;;;;;11.35;6.93;;;;;;;34.29;27.20;100241.84;5053345;28;20068;-60
2022/08/06 09:52:39;;;;;;;9.48;6.93;;;;;;;34.03;27.49;100222.31;5050725;28;20381;-61
2022/08/06 09:55:05;;;;;;;9.30;7.07;;;;;;;33.88;27.64;100245.22;5052527;28;20040;-61
2022/08/06 09:57:45;;;;;;;9.40;6.55;;;;;;;33.98;27.22;100238.91;5053358;28;20029;-62
2022/08/06 10:00:11;;;;;;;10.02;7.18;;;;;;;33.82;27.58;100222.16;5041292;28;20063;-60
2022/08/06 10:02:38;;;;;;;9.20;7.32;;;;;;;33.87;27.80;100218.56;5052890;28;20103;-60
2022/08/06 10:05:13;;;;;;;7.95;7.15;;;;;;;34.13;27.17;100229.84;5053283;28;20029;-60
2022/08/06 10:07:39;;;;;;;7.75;7.00;;;;;;;34.28;27.15;100223.50;5033108;28;20041;-60
2022/08/06 10:10:06;;;;;;;8.10;7.20;;;;;;;34.34;26.71;100230.72;5032916;28;20122;-61
2022/08/06 10:12:32;;;;;;;8.93;6.82;;;;;;;34.37;27.31;100226.59;5035441;28;20052;-60
2022/08/06 10:14:59;;;;;;;10.63;7.40;;;;;;;34.30;27.35;100224.88;5053231;28;20139;-64
2022/08/06 10:17:25;;;;;;;9.65;7.63;;;;;;;34.26;27.54;100229.31;5053210;28;20389;-61
2022/08/06 10:20:13;;;;;;;9.13;6.80;;;;;;;34.43;27.10;100229.06;5047221;28;20423;-61
2022/08/06 10:22:54;;;;;;;7.90;7.15;;;;;;;34.54;27.05;100226.38;5032831;28;20048;-61
2022/08/06 10:25:21;;;;;;;12.57;7.78;;;;;;;34.38;27.25;100192.13;5033496;28;20025;-60
2022/08/06 10:27:47;;;;;;;9.80;7.28;;;;;;;34.61;26.82;100199.13;5045012;28;20359;-61
2022/08/06 10:30:13;;;;;;;7.65;6.70;;;;;;;34.71;26.45;100203.88;5052417;28;20036;-61
2022/08/06 10:33:01;;;;;;;8.25;6.68;;;;;;;34.87;25.43;100210.25;5052561;28;20033;-60
2022/08/06 10:35:27;;;;;;;6.90;6.20;;;;;;;34.72;25.82;100195.22;5033423;28;20040;-60
2022/08/06 10:37:58;;;;;;;7.18;6.47;;;;;;;34.81;25.47;100192.72;5032984;28;20029;-62
2022/08/06 10:40:26;;;;;;;11.45;6.70;;;;;;;34.87;25.79;100210.25;5042747;28;20052;-63
2022/08/06 10:42:52;;;;;;;9.43;7.03;;;;;;;34.72;26.47;100200.78;5052722;28;20302;-60
2022/08/06 10:45:18;;;;;;;8.50;7.07;;;;;;;34.38;26.72;100190.16;5052777;28;20107;-61
2022/08/06 10:47:45;;;;;;;8.10;6.97;;;;;;;34.02;27.65;100192.84;5039132;28;20109;-62
2022/08/06 10:50:14;;;;;;;8.27;6.90;;;;;;;33.81;27.79;100167.75;5032166;28;20140;-61
2022/08/06 10:52:42;;;;;;;7.72;6.95;;;;;;;33.84;27.71;100183.84;5030815;28;20033;-60
2022/08/06 10:55:09;;;;;;;6.75;6.15;;;;;;;33.86;26.51;100173.31;5048179;28;20040;-59
2022/08/06 10:57:34;;;;;;;7.88;5.75;;;;;;;33.92;26.38;100166.66;5052200;28;20033;-61
2022/08/06 11:00:03;;;;;;;7.85;6.28;;;;;;;34.06;26.96;100177.31;5044316;28;20080;-60
2022/08/06 11:02:47;;;;;;;6.70;5.93;;;;;;;34.37;26.31;100160.69;5032119;28;20116;-62
2022/08/06 11:05:16;;;;;;;6.85;6.25;;;;;;;34.39;26.02;100169.59;5032547;28;20466;-61
2022/08/06 11:08:20;;;;;;;7.68;6.60;;;;;;;34.51;26.05;100171.31;5052019;28;20037;-60
2022/08/06 11:11:20;;;;;;;9.70;6.30;;;;;;;34.53;26.06;100163.53;5052194;28;20164;-60
2022/08/06 11:14:01;;;;;;;6.97;6.30;;;;;;;34.47;25.70;100160.69;5038208;28;20030;-60
2022/08/06 11:16:29;;;;;;;7.97;5.78;;;;;;;34.20;26.01;100139.53;5032055;28;20113;-62
2022/08/06 11:19:07;;;;;;;7.78;6.28;;;;;;;34.51;25.93;100160.22;5038413;28;20385;-61
2022/08/06 11:21:37;;;;;;;6.72;6.13;;;;;;;34.51;25.29;100158.25;5051985;28;20037;-60
2022/08/06 11:24:04;;;;;;;6.50;5.90;;;;;;;34.44;25.11;100141.78;5051525;28;20091;-62
2022/08/06 11:26:38;;;;;;;7.15;6.15;;;;;;;34.55;24.54;100153.78;5032577;28;20040;-61
2022/08/06 11:29:05;;;;;;;6.78;5.60;;;;;;;34.47;24.30;100143.19;5031382;28;20063;-60
2022/08/06 11:31:33;;;;;;;6.53;5.93;;;;;;;34.41;24.29;100134.00;5031629;28;20172;-61
2022/08/06 11:34:01;;;;;;;6.78;6.07;;;;;;;34.32;24.48;100146.81;5049405;28;20037;-61